createdAt,value
2019-02-10T00:00:47.814Z,0.00
2019-02-10T00:01:47.859Z,0.00
2019-02-10T00:02:47.896Z,0.00
2019-02-10T00:03:47.977Z,0.00
2019-02-10T00:04:48.021Z,0.00
2019-02-10T00:05:48.035Z,0.00
2019-02-10T00:06:48.071Z,0.00
2019-02-10T00:07:48.120Z,0.00
2019-02-10T00:08:48.153Z,0.00
2019-02-10T00:09:48.225Z,0.00
2019-02-10T00:10:48.236Z,0.00
2019-02-10T00:11:48.275Z,0.00
2019-02-10T00:12:48.338Z,0.00
2019-02-10T00:13:48.374Z,0.00
2019-02-10T00:14:48.439Z,0.00
2019-02-10T00:15:48.463Z,0.00
2019-02-10T00:16:48.498Z,0.00
2019-02-10T00:17:48.535Z,0.00
2019-02-10T00:18:48.579Z,0.00
2019-02-10T00:19:48.638Z,0.00
2019-02-10T00:20:48.657Z,0.00
2019-02-10T00:21:48.724Z,0.00
2019-02-10T00:22:48.745Z,0.00
2019-02-10T00:23:48.782Z,0.00
2019-02-10T00:24:48.834Z,0.00
2019-02-10T00:25:48.879Z,0.00
2019-02-10T00:26:48.932Z,0.00
2019-02-10T00:27:48.950Z,0.00
2019-02-10T00:28:48.998Z,0.00
2019-02-10T00:29:49.041Z,0.00
2019-02-10T00:30:49.089Z,0.00
2019-02-10T00:31:49.161Z,0.00
2019-02-10T00:32:49.169Z,0.00
2019-02-10T00:33:49.207Z,0.00
2019-02-10T00:34:49.249Z,0.00
2019-02-10T00:35:49.303Z,0.00
2019-02-10T00:36:49.370Z,0.00
2019-02-10T00:37:49.375Z,0.00
2019-02-10T00:38:49.441Z,0.00
2019-02-10T00:39:49.467Z,0.00
2019-02-10T00:40:49.508Z,0.00
2019-02-10T00:41:49.563Z,0.00
2019-02-10T00:42:49.594Z,0.00
2019-02-10T00:43:49.630Z,0.00
2019-02-10T00:44:49.673Z,0.00
2019-02-10T00:45:49.722Z,0.00
2019-02-10T00:46:49.770Z,0.00
2019-02-10T00:47:49.802Z,0.00
2019-02-10T00:48:49.839Z,0.00
2019-02-10T00:49:49.902Z,0.00
2019-02-10T00:50:49.922Z,0.00
2019-02-10T00:51:49.986Z,0.00
2019-02-10T00:52:50.013Z,0.00
2019-02-10T00:53:50.060Z,0.00
2019-02-10T00:54:50.094Z,0.00
2019-02-10T00:55:50.136Z,0.00
2019-02-10T00:56:50.203Z,0.00
2019-02-10T00:57:50.249Z,0.00
2019-02-10T00:58:50.262Z,0.00
2019-02-10T00:59:50.326Z,0.00
2019-02-10T01:00:50.355Z,0.00
2019-02-10T01:01:50.402Z,0.00
2019-02-10T01:02:50.461Z,0.00
2019-02-10T01:03:50.490Z,0.00
2019-02-10T01:04:50.529Z,0.00
2019-02-10T01:05:50.565Z,0.00
2019-02-10T01:06:50.623Z,0.00
2019-02-10T01:07:50.664Z,0.00
2019-02-10T01:08:50.686Z,0.00
2019-02-10T01:09:50.739Z,0.00
2019-02-10T01:10:50.775Z,0.00
2019-02-10T01:11:50.821Z,0.00
2019-02-10T01:12:50.897Z,0.00
2019-02-10T01:13:50.924Z,0.00
2019-02-10T01:14:50.942Z,0.00
2019-02-10T01:15:50.982Z,0.00
2019-02-10T01:16:51.045Z,0.00
2019-02-10T01:17:51.087Z,0.00
2019-02-10T01:18:51.117Z,0.00
2019-02-10T01:19:51.160Z,0.00
2019-02-10T01:20:51.194Z,0.00
2019-02-10T01:21:51.242Z,0.00
2019-02-10T01:22:51.307Z,0.00
2019-02-10T01:23:51.325Z,0.00
2019-02-10T01:24:51.436Z,0.00
2019-02-10T01:25:51.409Z,0.00
2019-02-10T01:26:51.450Z,0.00
2019-02-10T01:27:51.532Z,0.00
2019-02-10T01:28:51.542Z,0.00
2019-02-10T01:29:51.578Z,0.00
2019-02-10T01:30:51.619Z,0.00
2019-02-10T01:31:51.701Z,0.00
2019-02-10T01:32:51.739Z,0.00
2019-02-10T01:33:51.745Z,0.00
2019-02-10T01:34:51.790Z,0.00
2019-02-10T01:35:51.830Z,0.00
2019-02-10T01:36:51.882Z,0.00
2019-02-10T01:37:51.938Z,0.00
2019-02-10T01:38:51.995Z,0.00
2019-02-10T01:39:52.001Z,0.00
2019-02-10T01:40:52.174Z,0.00
2019-02-10T01:41:52.096Z,0.00
2019-02-10T01:42:52.147Z,0.00
2019-02-10T01:43:52.193Z,0.00
2019-02-10T01:44:52.219Z,0.00
2019-02-10T01:45:52.255Z,0.00
2019-02-10T01:46:52.300Z,0.00
2019-02-10T01:47:52.457Z,0.00
2019-02-10T01:48:52.401Z,0.00
2019-02-10T01:49:52.446Z,0.00
2019-02-10T01:50:52.466Z,0.00
2019-02-10T01:51:52.512Z,0.00
2019-02-10T01:52:52.559Z,0.00
2019-02-10T01:53:52.597Z,0.00
2019-02-10T01:54:52.772Z,0.00
2019-02-10T01:55:52.679Z,0.00
2019-02-10T01:56:52.723Z,0.00
2019-02-10T01:57:52.770Z,0.00
2019-02-10T01:58:52.817Z,0.00
2019-02-10T01:59:52.871Z,0.00
2019-02-10T02:00:52.895Z,0.00
2019-02-10T02:01:52.938Z,0.00
2019-02-10T02:02:52.977Z,0.00
2019-02-10T02:03:53.029Z,0.00
2019-02-10T02:04:53.089Z,0.00
2019-02-10T02:05:53.106Z,0.00
2019-02-10T02:06:57.918Z,0.00
2019-02-10T02:07:53.192Z,0.00
2019-02-10T02:08:53.253Z,0.00
2019-02-10T02:09:53.297Z,0.00
2019-02-10T02:10:53.316Z,0.00
2019-02-10T02:11:53.359Z,0.00
2019-02-10T02:12:53.401Z,0.00
2019-02-10T02:13:53.455Z,0.00
2019-02-10T02:14:53.510Z,0.00
2019-02-10T02:15:53.532Z,0.00
2019-02-10T02:16:53.578Z,0.00
2019-02-10T02:17:53.612Z,0.00
2019-02-10T02:18:53.658Z,0.00
2019-02-10T02:19:53.738Z,0.00
2019-02-10T02:20:53.745Z,0.00
2019-02-10T02:21:53.783Z,0.00
2019-02-10T02:22:53.831Z,0.00
2019-02-10T02:23:53.881Z,0.00
2019-02-10T02:24:53.933Z,0.00
2019-02-10T02:25:53.954Z,0.00
2019-02-10T02:26:54.004Z,0.00
2019-02-10T02:27:54.040Z,0.00
2019-02-10T02:28:54.090Z,0.00
2019-02-10T02:29:54.150Z,0.00
2019-02-10T02:30:54.186Z,0.00
2019-02-10T02:31:54.215Z,0.00
2019-02-10T02:32:54.249Z,0.00
2019-02-10T02:33:54.314Z,0.00
2019-02-10T02:34:54.347Z,0.00
2019-02-10T02:35:54.397Z,0.00
2019-02-10T02:36:54.417Z,0.00
2019-02-10T02:37:54.526Z,0.00
2019-02-10T02:38:54.511Z,0.00
2019-02-10T02:39:54.546Z,0.00
2019-02-10T02:40:54.621Z,0.00
2019-02-10T02:41:54.635Z,0.00
2019-02-10T02:42:54.674Z,0.00
2019-02-10T02:43:54.720Z,0.00
2019-02-10T02:44:54.762Z,0.00
2019-02-10T02:45:54.823Z,0.00
2019-02-10T02:46:54.844Z,0.00
2019-02-10T02:47:54.893Z,0.00
2019-02-10T02:48:54.929Z,0.00
2019-02-10T02:49:54.969Z,0.00
2019-02-10T02:50:55.029Z,0.00
2019-02-10T02:51:55.078Z,0.00
2019-02-10T02:52:55.099Z,0.00
2019-02-10T02:53:55.148Z,0.00
2019-02-10T02:54:55.184Z,0.00
2019-02-10T02:55:55.265Z,0.00
2019-02-10T02:56:55.305Z,0.00
2019-02-10T02:57:55.308Z,0.00
2019-02-10T02:58:55.347Z,0.00
2019-02-10T02:59:55.394Z,0.00
2019-02-10T03:00:55.467Z,0.00
2019-02-10T03:01:55.478Z,0.00
2019-02-10T03:02:55.520Z,0.00
2019-02-10T03:03:55.582Z,0.00
2019-02-10T03:04:55.607Z,0.00
2019-02-10T03:05:55.669Z,0.00
2019-02-10T03:06:55.702Z,0.00
2019-02-10T03:07:55.728Z,0.00
2019-02-10T03:08:55.772Z,0.00
2019-02-10T03:09:55.825Z,0.00
2019-02-10T03:10:55.860Z,0.00
2019-02-10T03:11:55.922Z,0.00
2019-02-10T03:12:55.947Z,0.00
2019-02-10T03:13:55.986Z,0.00
2019-02-10T03:14:56.030Z,0.00
2019-02-10T03:15:56.071Z,0.00
2019-02-10T03:16:56.129Z,0.00
2019-02-10T03:17:56.250Z,0.00
2019-02-10T03:18:56.197Z,0.00
2019-02-10T03:19:56.246Z,0.00
2019-02-10T03:20:56.285Z,0.00
2019-02-10T03:21:56.344Z,0.00
2019-02-10T03:22:56.365Z,0.00
2019-02-10T03:23:56.411Z,0.00
2019-02-10T03:24:56.489Z,0.00
2019-02-10T03:25:56.506Z,0.00
2019-02-10T03:26:56.559Z,0.00
2019-02-10T03:27:56.579Z,0.00
2019-02-10T03:28:56.622Z,0.00
2019-02-10T03:29:56.671Z,0.00
2019-02-10T03:30:56.710Z,0.00
2019-02-10T03:31:56.783Z,0.00
2019-02-10T03:32:56.808Z,0.00
2019-02-10T03:33:56.841Z,0.00
2019-02-10T03:34:56.899Z,0.00
2019-02-10T03:35:56.927Z,0.00
2019-02-10T03:36:56.981Z,0.00
2019-02-10T03:37:57.023Z,0.00
2019-02-10T03:38:57.059Z,0.00
2019-02-10T03:39:57.095Z,0.00
2019-02-10T03:40:57.132Z,0.00
2019-02-10T03:41:57.187Z,0.00
2019-02-10T03:42:57.236Z,0.00
2019-02-10T03:43:57.263Z,0.00
2019-02-10T03:44:57.304Z,0.00
2019-02-10T03:45:57.352Z,0.00
2019-02-10T03:46:57.401Z,0.00
2019-02-10T03:47:57.458Z,0.00
2019-02-10T03:48:57.477Z,0.00
2019-02-10T03:49:57.531Z,0.00
2019-02-10T03:50:57.566Z,0.00
2019-02-10T03:51:57.602Z,0.00
2019-02-10T03:52:57.673Z,0.00
2019-02-10T03:53:57.685Z,0.00
2019-02-10T03:54:57.742Z,0.00
2019-02-10T03:55:57.778Z,0.00
2019-02-10T03:56:57.821Z,0.00
2019-02-10T03:57:57.883Z,0.00
2019-02-10T03:58:57.897Z,0.00
2019-02-10T03:59:58.073Z,0.00
2019-02-10T04:00:57.988Z,0.00
2019-02-10T04:01:58.028Z,0.00
2019-02-10T04:02:58.088Z,0.00
2019-02-10T04:03:58.129Z,0.00
2019-02-10T04:04:58.151Z,0.00
2019-02-10T04:05:58.198Z,0.00
2019-02-10T04:06:58.235Z,0.00
2019-02-10T04:07:58.435Z,0.00
2019-02-10T04:08:58.338Z,0.00
2019-02-10T04:09:58.365Z,0.00
2019-02-10T04:10:58.407Z,0.00
2019-02-10T04:11:58.447Z,0.00
2019-02-10T04:12:58.492Z,0.00
2019-02-10T04:13:58.551Z,0.00
2019-02-10T04:14:58.571Z,0.00
2019-02-10T04:15:58.614Z,0.00
2019-02-10T04:16:58.666Z,0.00
2019-02-10T04:17:58.710Z,0.00
2019-02-10T04:18:58.765Z,0.00
2019-02-10T04:19:58.791Z,0.00
2019-02-10T04:20:58.828Z,0.00
2019-02-10T04:21:58.870Z,0.00
2019-02-10T04:22:58.912Z,0.00
2019-02-10T04:23:58.975Z,0.00
2019-02-10T04:24:58.997Z,0.00
2019-02-10T04:25:59.091Z,0.00
2019-02-10T04:26:59.080Z,0.00
2019-02-10T04:27:59.133Z,0.00
2019-02-10T04:28:59.183Z,0.00
2019-02-10T04:29:59.222Z,0.00
2019-02-10T04:30:59.250Z,0.00
2019-02-10T04:31:59.294Z,0.00
2019-02-10T04:32:59.335Z,0.00
2019-02-10T04:33:59.377Z,0.00
2019-02-10T04:34:59.442Z,0.00
2019-02-10T04:35:59.475Z,0.00
2019-02-10T04:36:59.501Z,0.00
2019-02-10T04:37:59.543Z,0.00
2019-02-10T04:38:59.582Z,0.00
2019-02-10T04:39:59.646Z,0.00
2019-02-10T04:40:59.684Z,0.00
2019-02-10T04:41:59.713Z,0.00
2019-02-10T04:42:59.753Z,0.00
2019-02-10T04:43:59.795Z,0.00
2019-02-10T04:44:59.842Z,0.00
2019-02-10T04:45:59.899Z,0.00
2019-02-10T04:46:59.922Z,0.00
2019-02-10T04:47:59.961Z,0.00
2019-02-10T04:49:00.004Z,0.00
2019-02-10T04:50:00.195Z,0.00
2019-02-10T04:51:00.111Z,0.00
2019-02-10T04:52:00.129Z,0.00
2019-02-10T04:53:00.174Z,0.00
2019-02-10T04:54:00.214Z,0.00
2019-02-10T04:55:00.344Z,0.00
2019-02-10T04:56:00.321Z,0.00
2019-02-10T04:57:00.341Z,0.00
2019-02-10T04:58:00.383Z,0.00
2019-02-10T04:59:00.434Z,0.00
2019-02-10T05:00:00.486Z,0.00
2019-02-10T05:01:00.528Z,0.00
2019-02-10T05:02:00.569Z,0.00
2019-02-10T05:03:00.591Z,0.00
2019-02-10T05:04:00.636Z,0.00
2019-02-10T05:05:00.678Z,0.00
2019-02-10T05:06:00.734Z,0.00
2019-02-10T05:07:00.783Z,0.00
2019-02-10T05:08:00.802Z,0.00
2019-02-10T05:09:00.847Z,0.00
2019-02-10T05:10:00.891Z,0.00
2019-02-10T05:11:00.946Z,0.00
2019-02-10T05:12:00.986Z,0.00
2019-02-10T05:13:01.015Z,0.00
2019-02-10T05:14:01.052Z,0.00
2019-02-10T05:15:01.098Z,0.00
2019-02-10T05:16:01.143Z,0.00
2019-02-10T05:17:01.198Z,0.00
2019-02-10T05:18:01.231Z,0.00
2019-02-10T05:19:01.262Z,0.00
2019-02-10T05:20:01.321Z,0.00
2019-02-10T05:21:01.350Z,0.00
2019-02-10T05:22:01.420Z,0.00
2019-02-10T05:23:01.471Z,0.00
2019-02-10T05:24:03.647Z,0.00
2019-02-10T05:25:01.518Z,0.00
2019-02-10T05:26:01.555Z,0.00
2019-02-10T05:27:01.617Z,0.00
2019-02-10T05:28:01.637Z,0.00
2019-02-10T05:29:01.684Z,0.00
2019-02-10T05:30:01.729Z,0.00
2019-02-10T05:31:01.767Z,0.00
2019-02-10T05:32:01.828Z,0.00
2019-02-10T05:33:01.847Z,0.00
2019-02-10T05:34:01.896Z,0.00
2019-02-10T05:35:01.943Z,0.00
2019-02-10T05:36:01.972Z,0.00
2019-02-10T05:37:02.032Z,0.00
2019-02-10T05:38:04.190Z,0.00
2019-02-10T05:39:02.108Z,0.00
2019-02-10T05:40:02.147Z,0.00
2019-02-10T05:41:02.182Z,0.00
2019-02-10T05:42:02.244Z,0.00
2019-02-10T05:43:02.285Z,0.00
2019-02-10T05:44:02.311Z,0.00
2019-02-10T05:45:02.351Z,0.00
2019-02-10T05:46:02.389Z,0.00
2019-02-10T05:47:02.434Z,0.00
2019-02-10T05:48:02.496Z,0.00
2019-02-10T05:49:02.539Z,0.00
2019-02-10T05:50:02.556Z,0.00
2019-02-10T05:51:02.602Z,0.00
2019-02-10T05:52:02.643Z,0.00
2019-02-10T05:53:02.700Z,0.00
2019-02-10T05:54:02.730Z,0.00
2019-02-10T05:55:02.769Z,0.00
2019-02-10T05:56:02.816Z,0.00
2019-02-10T05:57:02.851Z,0.00
2019-02-10T05:58:02.967Z,0.00
2019-02-10T05:59:02.932Z,0.00
2019-02-10T06:00:02.984Z,0.00
2019-02-10T06:01:03.016Z,0.00
2019-02-10T06:02:03.066Z,0.00
2019-02-10T06:03:03.130Z,0.00
2019-02-10T06:04:03.143Z,0.00
2019-02-10T06:05:03.301Z,0.00
2019-02-10T06:06:03.224Z,0.00
2019-02-10T06:07:03.271Z,0.00
2019-02-10T06:08:03.337Z,4.00
2019-02-10T06:09:03.358Z,4.00
2019-02-10T06:10:03.391Z,4.00
2019-02-10T06:11:03.432Z,4.00
2019-02-10T06:12:03.530Z,4.00
2019-02-10T06:13:03.541Z,8.00
2019-02-10T06:14:04.246Z,8.00
2019-02-10T06:15:03.615Z,12.00
2019-02-10T06:16:03.639Z,12.00
2019-02-10T06:17:03.679Z,16.00
2019-02-10T06:18:03.722Z,16.00
2019-02-10T06:19:03.818Z,20.00
2019-02-10T06:20:03.815Z,24.00
2019-02-10T06:21:03.847Z,28.00
2019-02-10T06:22:03.892Z,32.00
2019-02-10T06:23:03.936Z,40.00
2019-02-10T06:24:03.992Z,44.00
2019-02-10T06:25:04.037Z,56.00
2019-02-10T06:26:04.116Z,64.00
2019-02-10T06:27:04.089Z,76.00
2019-02-10T06:28:04.148Z,84.00
2019-02-10T06:29:04.181Z,96.00
2019-02-10T06:30:04.234Z,108.00
2019-02-10T06:31:04.256Z,124.00
2019-02-10T06:32:04.305Z,140.00
2019-02-10T06:33:04.339Z,156.00
2019-02-10T06:34:04.382Z,172.00
2019-02-10T06:35:04.436Z,188.00
2019-02-10T06:36:04.464Z,208.00
2019-02-10T06:37:04.505Z,228.00
2019-02-10T06:38:04.545Z,252.00
2019-02-10T06:39:04.584Z,276.00
2019-02-10T06:40:04.763Z,300.00
2019-02-10T06:41:04.664Z,328.00
2019-02-10T06:42:04.712Z,360.00
2019-02-10T06:43:04.749Z,392.00
2019-02-10T06:44:04.789Z,432.00
2019-02-10T06:45:04.877Z,472.00
2019-02-10T06:46:04.873Z,516.00
2019-02-10T06:47:04.919Z,564.00
2019-02-10T06:48:04.950Z,616.00
2019-02-10T06:49:05.000Z,672.00
2019-02-10T06:50:05.064Z,736.00
2019-02-10T06:51:05.071Z,804.00
2019-02-10T06:52:05.111Z,884.00
2019-02-10T06:53:05.161Z,968.00
2019-02-10T06:54:05.197Z,1060.00
2019-02-10T06:55:05.255Z,1164.00
2019-02-10T06:56:05.370Z,1268.00
2019-02-10T06:57:05.326Z,1372.00
2019-02-10T06:58:05.365Z,1492.00
2019-02-10T06:59:05.397Z,1616.00
2019-02-10T07:00:05.439Z,1768.00
2019-02-10T07:01:05.510Z,1940.00
2019-02-10T07:02:05.547Z,2112.00
2019-02-10T07:03:05.585Z,2276.00
2019-02-10T07:04:05.603Z,2420.00
2019-02-10T07:05:05.648Z,2556.00
2019-02-10T07:06:05.698Z,2688.00
2019-02-10T07:07:05.744Z,2820.00
2019-02-10T07:08:05.764Z,2952.00
2019-02-10T07:09:05.804Z,3100.00
2019-02-10T07:10:05.848Z,3260.00
2019-02-10T07:11:05.910Z,3432.00
2019-02-10T07:12:05.943Z,3612.00
2019-02-10T07:13:05.974Z,3796.00
2019-02-10T07:14:06.009Z,3960.00
2019-02-10T07:15:06.056Z,4080.00
2019-02-10T07:16:06.121Z,4168.00
2019-02-10T07:17:06.187Z,4260.00
2019-02-10T07:18:06.175Z,4412.00
2019-02-10T07:19:06.220Z,4624.00
2019-02-10T07:20:06.254Z,4892.00
2019-02-10T07:21:06.294Z,5224.00
2019-02-10T07:22:06.358Z,5492.00
2019-02-10T07:23:06.377Z,5720.00
2019-02-10T07:24:06.470Z,5960.00
2019-02-10T07:25:06.464Z,6324.00
2019-02-10T07:26:06.506Z,6740.00
2019-02-10T07:27:06.572Z,7228.00
2019-02-10T07:28:07.053Z,7672.00
2019-02-10T07:29:06.630Z,8060.00
2019-02-10T07:30:06.667Z,8372.00
2019-02-10T07:31:06.753Z,8560.00
2019-02-10T07:32:06.777Z,8800.00
2019-02-10T07:33:06.794Z,9048.00
2019-02-10T07:34:06.841Z,9268.00
2019-02-10T07:35:06.878Z,9468.00
2019-02-10T07:36:06.922Z,9460.00
2019-02-10T07:37:06.981Z,9248.00
2019-02-10T07:38:07.041Z,9212.00
2019-02-10T07:39:07.042Z,9308.00
2019-02-10T07:40:07.086Z,9176.00
2019-02-10T07:41:07.136Z,8532.00
2019-02-10T07:42:07.189Z,8284.00
2019-02-10T07:43:07.232Z,7668.00
2019-02-10T07:44:07.261Z,7364.00
2019-02-10T07:45:07.367Z,7132.00
2019-02-10T07:46:07.348Z,7028.00
2019-02-10T07:47:07.395Z,6640.00
2019-02-10T07:48:07.453Z,6316.00
2019-02-10T07:49:07.475Z,6228.00
2019-02-10T07:50:07.523Z,6144.00
2019-02-10T07:51:07.576Z,6292.00
2019-02-10T07:52:07.654Z,6380.00
2019-02-10T07:53:07.677Z,6280.00
2019-02-10T07:54:07.699Z,6324.00
2019-02-10T07:55:07.731Z,6356.00
2019-02-10T07:56:07.782Z,6516.00
2019-02-10T07:57:07.815Z,6620.00
2019-02-10T07:58:07.890Z,6976.00
2019-02-10T07:59:07.901Z,7244.00
2019-02-10T08:00:07.949Z,7604.00
2019-02-10T08:01:08.084Z,7832.00
2019-02-10T08:02:08.032Z,7996.00
2019-02-10T08:03:08.107Z,8272.00
2019-02-10T08:04:08.126Z,8760.00
2019-02-10T08:05:08.174Z,8996.00
2019-02-10T08:06:08.204Z,9008.00
2019-02-10T08:07:09.216Z,8888.00
2019-02-10T08:08:08.369Z,9008.00
2019-02-10T08:09:08.352Z,9168.00
2019-02-10T08:10:08.376Z,9916.00
2019-02-10T08:11:08.441Z,10416.00
2019-02-10T08:12:08.461Z,11048.00
2019-02-10T08:13:08.509Z,11068.00
2019-02-10T08:14:08.580Z,11064.00
2019-02-10T08:15:08.600Z,11132.00
2019-02-10T08:16:08.833Z,11156.00
2019-02-10T08:17:08.692Z,10736.00
2019-02-10T08:18:08.731Z,10000.00
2019-02-10T08:19:08.806Z,9172.00
2019-02-10T08:20:08.837Z,8392.00
2019-02-10T08:21:08.865Z,7760.00
2019-02-10T08:22:08.911Z,7424.00
2019-02-10T08:23:08.956Z,7284.00
2019-02-10T08:24:08.999Z,7864.00
2019-02-10T08:25:09.083Z,8840.00
2019-02-10T08:26:09.104Z,9724.00
2019-02-10T08:27:09.132Z,10556.00
2019-02-10T08:28:09.171Z,11188.00
2019-02-10T08:29:09.251Z,11568.00
2019-02-10T08:30:09.289Z,11836.00
2019-02-10T08:31:09.316Z,12040.00
2019-02-10T08:32:09.363Z,11888.00
2019-02-10T08:33:09.398Z,11860.00
2019-02-10T08:34:09.467Z,11856.00
2019-02-10T08:35:09.492Z,11916.00
2019-02-10T08:36:09.579Z,12072.00
2019-02-10T08:37:09.593Z,12292.00
2019-02-10T08:38:09.641Z,12872.00
2019-02-10T08:39:09.666Z,13364.00
2019-02-10T08:40:09.733Z,14180.00
2019-02-10T08:41:09.754Z,13992.00
2019-02-10T08:42:09.799Z,13752.00
2019-02-10T08:43:09.847Z,13860.00
2019-02-10T08:44:09.903Z,13928.00
2019-02-10T08:45:09.967Z,14172.00
2019-02-10T08:46:09.986Z,13740.00
2019-02-10T08:47:10.030Z,12932.00
2019-02-10T08:48:10.073Z,12500.00
2019-02-10T08:49:10.113Z,12248.00
2019-02-10T08:50:10.184Z,12248.00
2019-02-10T08:51:10.201Z,12352.00
2019-02-10T08:52:10.257Z,12576.00
2019-02-10T08:53:10.299Z,12484.00
2019-02-10T08:54:10.339Z,12604.00
2019-02-10T08:55:10.414Z,12084.00
2019-02-10T08:56:10.432Z,11524.00
2019-02-10T08:57:10.475Z,11332.00
2019-02-10T08:58:10.522Z,11732.00
2019-02-10T08:59:10.593Z,12104.00
2019-02-10T09:00:10.637Z,12352.00
2019-02-10T09:01:10.685Z,12468.00
2019-02-10T09:02:10.710Z,12556.00
2019-02-10T09:03:10.879Z,12644.00
2019-02-10T09:04:10.814Z,12616.00
2019-02-10T09:05:10.837Z,12364.00
2019-02-10T09:06:10.935Z,12248.00
2019-02-10T09:07:10.930Z,12356.00
2019-02-10T09:08:10.988Z,12460.00
2019-02-10T09:09:11.027Z,12704.00
2019-02-10T09:10:11.066Z,13184.00
2019-02-10T09:11:11.132Z,13724.00
2019-02-10T09:12:11.163Z,14528.00
2019-02-10T09:13:11.209Z,15648.00
2019-02-10T09:14:11.249Z,17184.00
2019-02-10T09:15:11.296Z,17312.00
2019-02-10T09:16:11.368Z,17088.00
2019-02-10T09:17:11.394Z,17024.00
2019-02-10T09:18:11.430Z,16768.00
2019-02-10T09:19:11.483Z,16960.00
2019-02-10T09:20:11.524Z,15780.00
2019-02-10T09:21:11.579Z,14532.00
2019-02-10T09:22:11.614Z,15472.00
2019-02-10T09:23:11.666Z,17184.00
2019-02-10T09:24:11.836Z,20000.00
2019-02-10T09:25:11.763Z,21152.00
2019-02-10T09:26:11.827Z,22080.00
2019-02-10T09:27:11.844Z,20960.00
2019-02-10T09:28:11.906Z,21888.00
2019-02-10T09:29:11.932Z,24704.00
2019-02-10T09:30:11.980Z,26816.00
2019-02-10T09:31:12.263Z,27808.00
2019-02-10T09:32:12.088Z,27072.00
2019-02-10T09:33:12.119Z,24576.00
2019-02-10T09:34:12.170Z,23872.00
2019-02-10T09:35:12.222Z,25312.00
2019-02-10T09:36:12.282Z,25728.00
2019-02-10T09:37:12.327Z,24928.00
2019-02-10T09:38:12.440Z,24512.00
2019-02-10T09:39:12.401Z,21216.00
2019-02-10T09:40:12.457Z,19136.00
2019-02-10T09:41:12.501Z,16864.00
2019-02-10T09:42:12.557Z,15892.00
2019-02-10T09:43:12.596Z,17440.00
2019-02-10T09:44:12.641Z,17056.00
2019-02-10T09:45:12.690Z,15476.00
2019-02-10T09:46:12.731Z,15808.00
2019-02-10T09:47:12.795Z,15012.00
2019-02-10T09:48:12.827Z,14236.00
2019-02-10T09:49:12.879Z,14016.00
2019-02-10T09:50:12.924Z,14428.00
2019-02-10T09:51:12.959Z,15484.00
2019-02-10T09:52:13.027Z,15340.00
2019-02-10T09:53:13.075Z,14964.00
2019-02-10T09:54:13.115Z,14772.00
2019-02-10T09:55:13.166Z,13780.00
2019-02-10T09:56:13.202Z,14084.00
2019-02-10T09:57:13.269Z,15576.00
2019-02-10T09:58:13.299Z,14232.00
2019-02-10T09:59:13.333Z,12744.00
2019-02-10T10:00:13.390Z,13520.00
2019-02-10T10:01:14.742Z,14800.00
2019-02-10T10:02:13.527Z,16084.00
2019-02-10T10:03:13.530Z,16512.00
2019-02-10T10:04:13.575Z,16412.00
2019-02-10T10:05:13.626Z,16400.00
2019-02-10T10:06:13.690Z,16404.00
2019-02-10T10:07:13.726Z,16504.00
2019-02-10T10:08:13.781Z,16960.00
2019-02-10T10:09:19.121Z,17344.00
2019-02-10T10:10:13.863Z,19584.00
2019-02-10T10:11:13.905Z,20736.00
2019-02-10T10:12:14.025Z,19808.00
2019-02-10T10:13:14.012Z,20032.00
2019-02-10T10:14:14.043Z,23424.00
2019-02-10T10:15:14.093Z,23264.00
2019-02-10T10:16:14.129Z,23104.00
2019-02-10T10:17:14.171Z,28384.00
2019-02-10T10:18:14.259Z,32832.00
2019-02-10T10:19:14.323Z,40960.00
2019-02-10T10:20:14.320Z,39712.00
2019-02-10T10:21:14.416Z,41632.00
2019-02-10T10:22:14.412Z,35616.00
2019-02-10T10:23:14.484Z,37728.00
2019-02-10T10:24:14.510Z,26816.00
2019-02-10T10:25:14.555Z,26944.00
2019-02-10T10:26:14.605Z,25408.00
2019-02-10T10:27:14.648Z,26176.00
2019-02-10T10:28:14.739Z,24448.00
2019-02-10T10:29:14.777Z,25632.00
2019-02-10T10:30:14.793Z,24480.00
2019-02-10T10:31:14.849Z,23328.00
2019-02-10T10:32:14.897Z,25888.00
2019-02-10T10:33:14.965Z,23776.00
2019-02-10T10:34:15.007Z,26208.00
2019-02-10T10:35:15.041Z,26176.00
2019-02-10T10:36:15.082Z,25984.00
2019-02-10T10:37:15.153Z,27840.00
2019-02-10T10:38:15.181Z,30144.00
2019-02-10T10:39:15.251Z,37056.00
2019-02-10T10:40:15.275Z,36864.00
2019-02-10T10:41:15.337Z,37472.00
2019-02-10T10:42:15.384Z,38208.00
2019-02-10T10:43:15.427Z,44608.00
2019-02-10T10:44:15.580Z,51680.00
2019-02-10T10:45:15.538Z,55616.00
2019-02-10T10:46:15.569Z,56160.00
2019-02-10T10:47:15.619Z,58624.00
2019-02-10T10:48:15.679Z,54976.00
2019-02-10T10:49:15.806Z,56160.00
2019-02-10T10:50:15.771Z,58976.00
2019-02-10T10:51:15.824Z,58304.00
2019-02-10T10:52:15.868Z,51264.00
2019-02-10T10:53:15.913Z,46304.00
2019-02-10T10:54:15.998Z,41440.00
2019-02-10T10:55:16.018Z,36512.00
2019-02-10T10:56:16.086Z,32640.00
2019-02-10T10:57:16.122Z,29344.00
2019-02-10T10:58:16.181Z,28288.00
2019-02-10T10:59:16.246Z,27968.00
2019-02-10T11:00:16.279Z,28288.00
2019-02-10T11:01:16.335Z,30720.00
2019-02-10T11:02:16.372Z,32384.00
2019-02-10T11:03:17.306Z,32640.00
2019-02-10T11:04:16.506Z,32128.00
2019-02-10T11:05:16.542Z,31584.00
2019-02-10T11:06:16.591Z,29248.00
2019-02-10T11:07:16.646Z,24928.00
2019-02-10T11:08:16.713Z,24480.00
2019-02-10T11:09:16.778Z,21760.00
2019-02-10T11:10:16.792Z,19552.00
2019-02-10T11:11:16.840Z,18144.00
2019-02-10T11:12:16.876Z,17280.00
2019-02-10T11:13:16.932Z,18144.00
2019-02-10T11:14:17.025Z,19360.00
2019-02-10T11:15:17.031Z,19488.00
2019-02-10T11:16:17.082Z,18848.00
2019-02-10T11:17:17.148Z,19104.00
2019-02-10T11:18:17.207Z,19904.00
2019-02-10T11:19:17.257Z,19680.00
2019-02-10T11:20:17.307Z,19808.00
2019-02-10T11:21:17.341Z,19776.00
2019-02-10T11:22:17.425Z,20800.00
2019-02-10T11:23:17.425Z,21472.00
2019-02-10T11:24:17.482Z,22176.00
2019-02-10T11:25:17.617Z,22496.00
2019-02-10T11:26:17.571Z,23136.00
2019-02-10T11:27:17.626Z,23488.00
2019-02-10T11:28:18.259Z,22304.00
2019-02-10T11:29:17.728Z,21504.00
2019-02-10T11:30:17.806Z,24544.00
2019-02-10T11:31:17.816Z,29280.00
2019-02-10T11:32:17.910Z,27168.00
2019-02-10T11:33:17.919Z,28128.00
2019-02-10T11:34:17.961Z,28384.00
2019-02-10T11:35:18.055Z,31008.00
2019-02-10T11:36:18.098Z,32704.00
2019-02-10T11:37:18.114Z,37824.00
2019-02-10T11:38:18.162Z,30240.00
2019-02-10T11:39:18.211Z,39072.00
2019-02-10T11:40:18.259Z,45984.00
2019-02-10T11:41:18.329Z,50080.00
2019-02-10T11:42:18.363Z,51360.00
2019-02-10T11:43:18.410Z,51584.00
2019-02-10T11:44:18.467Z,40896.00
2019-02-10T11:45:18.511Z,30176.00
2019-02-10T11:46:18.579Z,20288.00
2019-02-10T11:47:18.617Z,21344.00
2019-02-10T11:48:18.657Z,56448.00
2019-02-10T11:49:18.724Z,27712.00
2019-02-10T11:50:18.756Z,21600.00
2019-02-10T11:51:18.836Z,21792.00
2019-02-10T11:52:18.859Z,29120.00
2019-02-10T11:53:18.908Z,50880.00
2019-02-10T11:54:18.964Z,55648.00
2019-02-10T11:55:19.012Z,51552.00
2019-02-10T11:56:19.116Z,51712.00
2019-02-10T11:57:19.121Z,49024.00
2019-02-10T11:58:19.192Z,50688.00
2019-02-10T11:59:19.214Z,47712.00
2019-02-10T12:00:19.272Z,49120.00
2019-02-10T12:01:19.454Z,53472.00
2019-02-10T12:02:19.373Z,43136.00
2019-02-10T12:03:19.426Z,48096.00
2019-02-10T12:04:19.467Z,35200.00
2019-02-10T12:05:19.520Z,44064.00
2019-02-10T12:06:19.601Z,35424.00
2019-02-10T12:07:19.642Z,24992.00
2019-02-10T12:08:19.726Z,41920.00
2019-02-10T12:09:19.733Z,33216.00
2019-02-10T12:10:19.776Z,48384.00
2019-02-10T12:11:19.839Z,33120.00
2019-02-10T12:12:19.907Z,38560.00
2019-02-10T12:13:19.939Z,52320.00
2019-02-10T12:14:19.998Z,55584.00
2019-02-10T12:15:20.034Z,29504.00
2019-02-10T12:16:20.084Z,38176.00
2019-02-10T12:17:20.168Z,55392.00
2019-02-10T12:18:20.200Z,46464.00
2019-02-10T12:19:20.248Z,34080.00
2019-02-10T12:20:20.303Z,35488.00
2019-02-10T12:21:20.351Z,30048.00
2019-02-10T12:22:20.424Z,26464.00
2019-02-10T12:23:20.461Z,25056.00
2019-02-10T12:24:20.504Z,24768.00
2019-02-10T12:25:20.556Z,23424.00
2019-02-10T12:26:20.613Z,22368.00
2019-02-10T12:27:20.690Z,21376.00
2019-02-10T12:28:21.837Z,20480.00
2019-02-10T12:29:20.795Z,19456.00
2019-02-10T12:30:20.825Z,18944.00
2019-02-10T12:31:20.860Z,18528.00
2019-02-10T12:32:20.919Z,18400.00
2019-02-10T12:33:20.984Z,18592.00
2019-02-10T12:34:21.017Z,19200.00